createdAt,value
2023-03-11T00:06:25.453Z,7.35
2023-03-11T00:16:32.548Z,7.35
2023-03-11T00:26:39.945Z,7.29
2023-03-11T00:36:47.478Z,7.24
2023-03-11T00:46:54.772Z,7.22
2023-03-11T00:57:01.747Z,7.23
2023-03-11T01:07:11.372Z,7.27
2023-03-11T01:17:18.853Z,7.42
2023-03-11T01:27:26.123Z,7.48
2023-03-11T01:37:34.111Z,7.60
2023-03-11T01:47:38.745Z,7.74
2023-03-11T01:57:47.846Z,7.70
2023-03-11T02:07:56.790Z,7.63
2023-03-11T02:18:06.590Z,7.55
2023-03-11T02:38:28.218Z,7.23
2023-03-11T02:48:35.884Z,7.11
2023-03-11T02:58:43.222Z,6.86
2023-03-11T03:08:50.782Z,6.46
2023-03-11T03:18:57.813Z,6.18
2023-03-11T03:29:05.142Z,6.05
2023-03-11T03:39:12.352Z,6.02
2023-03-11T03:49:19.389Z,5.99
2023-03-11T03:59:26.465Z,5.77
2023-03-11T04:09:33.722Z,5.53
2023-03-11T04:19:41.428Z,5.47
2023-03-11T04:29:48.675Z,5.39
2023-03-11T04:39:56.110Z,5.34
2023-03-11T04:50:04.231Z,5.31
2023-03-11T05:00:13.834Z,5.16
2023-03-11T05:10:22.726Z,4.98
2023-03-11T05:20:32.405Z,4.83
2023-03-11T05:30:38.096Z,4.68
2023-03-11T05:40:45.094Z,4.55
2023-03-11T05:50:52.210Z,4.48
2023-03-11T06:01:00.335Z,4.00
2023-03-11T06:11:09.633Z,3.50
2023-03-11T06:21:16.537Z,3.04
2023-03-11T06:31:22.888Z,2.91
2023-03-11T06:41:28.058Z,2.81
2023-03-11T06:51:35.407Z,2.71
2023-03-11T07:01:42.903Z,2.55
2023-03-11T07:11:49.996Z,2.36
2023-03-11T07:21:57.069Z,2.46
2023-03-11T07:32:04.537Z,2.43
2023-03-11T07:42:10.747Z,2.39
2023-03-11T07:52:17.962Z,2.30
2023-03-11T08:02:25.217Z,2.34
2023-03-11T08:12:32.494Z,2.50
2023-03-11T08:22:55.715Z,2.68
2023-03-11T08:33:05.145Z,2.67
2023-03-11T08:43:15.616Z,2.60
2023-03-11T08:53:22.355Z,2.30
2023-03-11T09:03:27.529Z,2.22
2023-03-11T09:13:34.846Z,2.09
2023-03-11T09:23:44.515Z,1.93
2023-03-11T09:33:55.701Z,1.69
2023-03-11T09:44:05.220Z,1.62
2023-03-11T09:54:10.559Z,1.62
2023-03-11T10:04:23.623Z,1.64
2023-03-11T10:14:40.092Z,1.52
2023-03-11T10:24:55.486Z,1.37
2023-03-11T10:35:05.459Z,1.35
2023-03-11T10:45:15.234Z,1.27
2023-03-11T10:55:22.476Z,1.08
2023-03-11T11:05:29.449Z,0.93
2023-03-11T11:15:39.361Z,0.89
2023-03-11T11:25:57.182Z,0.81
2023-03-11T11:36:06.149Z,0.75
2023-03-11T11:46:13.878Z,0.73
2023-03-11T11:56:21.066Z,0.76
2023-03-11T12:06:26.802Z,0.90
2023-03-11T12:16:36.274Z,0.94
2023-03-11T12:26:48.131Z,0.67
2023-03-11T12:36:58.984Z,0.55
2023-03-11T12:47:05.168Z,0.49
2023-03-11T12:57:35.872Z,0.48
2023-03-11T13:07:47.112Z,0.47
2023-03-11T13:18:02.673Z,0.36
2023-03-11T13:28:20.262Z,0.40
2023-03-11T13:39:07.266Z,0.47
2023-03-11T13:49:21.866Z,0.37
2023-03-11T13:59:31.021Z,0.42
2023-03-11T14:09:38.269Z,0.40
2023-03-11T14:20:04.854Z,0.29
2023-03-11T14:30:21.039Z,0.22
2023-03-11T14:40:29.849Z,0.18
2023-03-11T14:50:38.460Z,0.19
2023-03-11T15:00:43.585Z,0.30
2023-03-11T15:11:24.830Z,0.31
2023-03-11T15:21:32.564Z,0.14
2023-03-11T15:31:40.067Z,0.11
2023-03-11T15:41:47.197Z,0.12
2023-03-11T16:01:59.939Z,0.07
2023-03-11T16:12:12.289Z,0.08
2023-03-11T16:22:16.549Z,-0.01
2023-03-11T16:32:24.020Z,-0.11
2023-03-11T16:42:31.296Z,-0.11
2023-03-11T16:52:38.599Z,-0.23
2023-03-11T17:02:46.284Z,-0.29
2023-03-11T17:12:53.756Z,-0.22
2023-03-11T17:23:01.284Z,-0.19
2023-03-11T17:33:08.563Z,-0.23
2023-03-11T17:43:15.689Z,-0.22
2023-03-11T17:53:22.773Z,-0.24
2023-03-11T18:03:29.103Z,-0.23
2023-03-11T18:13:37.429Z,-0.32
2023-03-11T18:23:45.696Z,-0.41
2023-03-11T18:33:54.832Z,-0.41
2023-03-11T18:44:02.560Z,-0.47
2023-03-11T18:54:11.428Z,-0.63
2023-03-11T19:04:18.708Z,-0.76
2023-03-11T19:14:25.121Z,-0.79
2023-03-11T19:24:32.629Z,-0.78
2023-03-11T19:34:38.666Z,-0.62
2023-03-11T19:44:46.511Z,-0.52
2023-03-11T19:54:53.168Z,-0.52
2023-03-11T20:05:00.652Z,-0.41
2023-03-11T20:15:05.605Z,-0.39
2023-03-11T20:25:13.294Z,-0.35
2023-03-11T20:35:18.285Z,-0.39
2023-03-11T20:45:25.864Z,-0.45
2023-03-11T20:55:33.228Z,-0.44
2023-03-11T21:05:41.906Z,-0.38
2023-03-11T21:15:49.015Z,-0.43
2023-03-11T21:25:59.307Z,-0.56
2023-03-11T21:36:08.509Z,-0.70
2023-03-11T21:46:17.528Z,-0.81
2023-03-11T21:56:23.389Z,-0.87
2023-03-11T22:06:31.258Z,-0.80
2023-03-11T22:16:38.849Z,-0.69
2023-03-11T22:26:46.207Z,-0.59
2023-03-11T22:36:53.380Z,-0.60
2023-03-11T22:47:00.497Z,-0.66
2023-03-11T22:57:07.174Z,-0.67
2023-03-11T23:07:14.662Z,-0.82
2023-03-11T23:17:21.759Z,-1.03
2023-03-11T23:27:29.613Z,-1.28
2023-03-11T23:37:39.895Z,-1.46
2023-03-11T23:47:46.975Z,-1.48
2023-03-11T23:57:53.084Z,-1.46
